Slagle, Missouri
Current Conditions -  °F | °C
As of 6:52 AM on Thursday 23 Oct 2014 (Local Time) from KSGF Reporting Station
Scattered Clouds Scattered Clouds  
Wind Chill: 12°   Ceiling: Unl
Heat Index: 12°   Visibility: 10mi
Dew Point:   Wind: 14mph
Humidity: 69%   Direction: 150°SSE
Pressure: 30.15"   Gusts: NA
Location:  37.6066°N, 93.4143°W
Report Text: KSGF 231152Z 15012KT 10SM SCT047 12/06 A3015 RMK AO2 SLP208 T01170061 10117 20111 53000
Loading
Personal Weather Stations






























Interactive Weather Map
Tropical Storm Tracking
New forecast layout! Learn more

10-Day Weather Forecast

Advertisements
Track Severe Weather on mobile